Time;durP1;ratioP1;P1;durP2;ratioP2;P2;SDS_P1;SDS_P2;PMS_P1;PMS_P2;Temp;Humidity;BMP_temperature;BMP_pressure;BME280_temperature;BME280_humidity;BME280_pressure;Samples;Min_cycle;Max_cycle;Signal;HPM_P1;HPM_P2
2022/03/07 00:00:16;;;;;;;;;8.00;8.00;;;;;;;;5094196;27;45503;-79
2022/03/07 00:02:42;;;;;;;;;7.75;7.75;;;;;;;;5091671;27;45487;-79
2022/03/07 00:05:07;;;;;;;;;6.50;6.50;;;;;;;;5095183;27;46846;-79
2022/03/07 00:07:32;;;;;;;;;5.75;5.75;;;;;;;;5087681;27;45492;-79
2022/03/07 00:09:57;;;;;;;;;7.75;7.50;;;;;;;;5084779;27;45585;-79
2022/03/07 00:12:22;;;;;;;;;5.25;5.25;;;;;;;;5097584;27;45403;-79
2022/03/07 00:14:48;;;;;;;;;6.00;6.00;;;;;;;;5098718;27;45543;-79
2022/03/07 00:17:13;;;;;;;;;8.00;8.00;;;;;;;;5099174;27;45484;-79
2022/03/07 00:19:39;;;;;;;;;9.25;8.25;;;;;;;;5098262;27;45563;-78
2022/03/07 00:22:04;;;;;;;;;7.75;7.75;;;;;;;;5098025;27;45430;-79
2022/03/07 00:24:29;;;;;;;;;8.00;8.00;;;;;;;;5099898;27;46355;-79
2022/03/07 00:26:54;;;;;;;;;6.75;6.25;;;;;;;;5099115;27;45361;-79
2022/03/07 00:29:19;;;;;;;;;7.75;6.50;;;;;;;;5085355;27;45709;-79
2022/03/07 00:31:45;;;;;;;;;6.75;6.75;;;;;;;;5087019;27;45570;-79
2022/03/07 00:34:10;;;;;;;;;7.25;6.75;;;;;;;;5091551;27;46201;-78
2022/03/07 00:36:35;;;;;;;;;6.00;6.00;;;;;;;;5097616;27;45353;-79
2022/03/07 00:39:01;;;;;;;;;7.00;5.75;;;;;;;;5098614;27;45476;-79
2022/03/07 00:41:26;;;;;;;;;8.00;6.50;;;;;;;;5099382;27;45362;-79
2022/03/07 00:43:51;;;;;;;;;6.00;5.75;;;;;;;;5097001;27;45522;-79
2022/03/07 00:46:16;;;;;;;;;8.50;6.50;;;;;;;;5097841;27;45431;-79
2022/03/07 00:48:42;;;;;;;;;7.00;7.00;;;;;;;;5097718;27;45514;-79
2022/03/07 00:51:07;;;;;;;;;5.00;5.00;;;;;;;;5097557;27;45331;-79
2022/03/07 00:53:32;;;;;;;;;5.00;5.00;;;;;;;;5098657;27;46053;-79
2022/03/07 00:55:57;;;;;;;;;7.75;7.75;;;;;;;;5097417;27;45569;-79
2022/03/07 00:58:23;;;;;;;;;7.00;7.00;;;;;;;;5097032;27;45364;-79
2022/03/07 01:00:48;;;;;;;;;7.50;6.25;;;;;;;;5097478;27;45570;-79
2022/03/07 01:03:14;;;;;;;;;6.00;6.00;;;;;;;;5097032;27;46187;-79
2022/03/07 01:05:40;;;;;;;;;8.25;6.50;;;;;;;;5098768;27;45691;-79
2022/03/07 01:08:06;;;;;;;;;6.25;6.25;;;;;;;;5097648;27;45464;-79
2022/03/07 01:10:31;;;;;;;;;7.75;7.75;;;;;;;;5097589;27;45354;-79
2022/03/07 01:12:56;;;;;;;;;7.00;6.00;;;;;;;;5092822;27;45287;-79
2022/03/07 01:15:22;;;;;;;;;4.50;4.00;;;;;;;;5098437;27;45510;-79
2022/03/07 01:17:47;;;;;;;;;6.00;6.00;;;;;;;;5097717;27;45278;-79
2022/03/07 01:20:13;;;;;;;;;6.75;6.75;;;;;;;;5097156;27;45536;-79
2022/03/07 01:22:38;;;;;;;;;5.50;5.50;;;;;;;;5095932;27;46033;-79
2022/03/07 01:25:04;;;;;;;;;6.25;6.25;;;;;;;;5097413;27;45278;-79
2022/03/07 01:27:29;;;;;;;;;6.50;6.50;;;;;;;;5097157;27;45272;-78
2022/03/07 01:29:55;;;;;;;;;6.00;6.00;;;;;;;;5097223;27;45538;-79
2022/03/07 01:32:20;;;;;;;;;8.00;7.00;;;;;;;;5098152;27;46110;-79
2022/03/07 01:34:45;;;;;;;;;5.50;5.50;;;;;;;;5104435;27;45405;-79
2022/03/07 01:37:11;;;;;;;;;6.00;5.00;;;;;;;;5104517;27;45395;-79
2022/03/07 01:39:36;;;;;;;;;6.25;6.25;;;;;;;;5096864;27;45420;-79
2022/03/07 01:42:01;;;;;;;;;6.00;6.00;;;;;;;;5096301;27;45991;-79
2022/03/07 01:44:28;;;;;;;;;5.50;5.25;;;;;;;;5093461;27;45429;-79
2022/03/07 01:46:53;;;;;;;;;8.00;6.25;;;;;;;;5096701;27;45423;-79
2022/03/07 01:49:19;;;;;;;;;6.50;6.50;;;;;;;;5096659;27;45377;-78
2022/03/07 01:51:45;;;;;;;;;6.00;6.00;;;;;;;;5096536;27;45385;-79
2022/03/07 01:54:10;;;;;;;;;7.50;6.50;;;;;;;;5110451;27;45396;-79
2022/03/07 01:56:36;;;;;;;;;5.00;5.00;;;;;;;;5096992;27;45425;-79
2022/03/07 01:59:04;;;;;;;;;6.50;6.50;;;;;;;;5097609;27;45392;-79
2022/03/07 02:01:30;;;;;;;;;6.00;6.00;;;;;;;;5096542;27;46208;-79
2022/03/07 02:03:55;;;;;;;;;4.75;4.75;;;;;;;;5096181;27;45315;-79
2022/03/07 02:06:21;;;;;;;;;7.00;5.25;;;;;;;;5096298;27;45517;-79
2022/03/07 02:08:47;;;;;;;;;7.00;5.75;;;;;;;;5096180;27;45527;-79
2022/03/07 02:11:12;;;;;;;;;6.25;6.25;;;;;;;;5096807;27;45381;-79
2022/03/07 02:13:37;;;;;;;;;8.75;8.00;;;;;;;;5096181;27;45284;-79
2022/03/07 02:16:03;;;;;;;;;7.25;5.50;;;;;;;;5096771;27;45654;-79
2022/03/07 02:18:30;;;;;;;;;6.00;6.00;;;;;;;;5096163;27;45544;-79
2022/03/07 02:20:56;;;;;;;;;4.25;4.25;;;;;;;;5097828;27;46660;-79
2022/03/07 02:23:21;;;;;;;;;6.25;6.25;;;;;;;;5095148;27;45367;-79
2022/03/07 02:25:47;;;;;;;;;6.00;6.00;;;;;;;;5096144;27;45401;-79
2022/03/07 02:28:13;;;;;;;;;5.00;5.00;;;;;;;;5096311;27;45214;-79
2022/03/07 02:30:38;;;;;;;;;7.75;6.00;;;;;;;;5102470;27;46359;-79
2022/03/07 02:33:03;;;;;;;;;6.50;6.50;;;;;;;;5081499;27;45375;-79
2022/03/07 02:35:29;;;;;;;;;9.75;8.00;;;;;;;;5096808;27;45263;-79
2022/03/07 02:37:54;;;;;;;;;6.25;6.25;;;;;;;;5086290;27;45330;-79
2022/03/07 02:40:20;;;;;;;;;6.50;6.25;;;;;;;;5084740;27;45621;-79
2022/03/07 02:42:45;;;;;;;;;6.50;5.50;;;;;;;;5096236;27;45400;-79
2022/03/07 02:45:10;;;;;;;;;6.00;5.00;;;;;;;;5096113;27;45462;-79
2022/03/07 02:47:35;;;;;;;;;4.00;3.50;;;;;;;;5096939;27;45260;-79
2022/03/07 02:50:01;;;;;;;;;6.00;6.00;;;;;;;;5095593;27;46334;-79
2022/03/07 02:52:26;;;;;;;;;6.00;6.00;;;;;;;;5099621;27;45485;-79
2022/03/07 02:54:52;;;;;;;;;7.00;5.50;;;;;;;;5106171;27;45475;-79
2022/03/07 02:57:17;;;;;;;;;7.00;5.75;;;;;;;;5095932;27;45392;-79
2022/03/07 02:59:42;;;;;;;;;6.75;6.75;;;;;;;;5096389;27;46362;-78
2022/03/07 03:02:07;;;;;;;;;5.00;5.00;;;;;;;;5097709;27;45474;-79
2022/03/07 03:04:34;;;;;;;;;6.25;6.00;;;;;;;;5095864;27;45337;-79
2022/03/07 03:07:00;;;;;;;;;5.75;5.00;;;;;;;;5095770;27;45364;-79
2022/03/07 03:09:25;;;;;;;;;6.25;6.00;;;;;;;;5092797;27;46336;-79
2022/03/07 03:11:50;;;;;;;;;5.00;5.00;;;;;;;;5093777;27;45596;-79
2022/03/07 03:14:15;;;;;;;;;7.75;7.75;;;;;;;;5091972;27;45314;-79
2022/03/07 03:16:40;;;;;;;;;7.50;6.00;;;;;;;;5087791;27;45330;-79
2022/03/07 03:19:06;;;;;;;;;5.50;5.50;;;;;;;;5086975;27;45302;-79
2022/03/07 03:21:31;;;;;;;;;6.00;6.00;;;;;;;;5095536;27;45536;-79
2022/03/07 03:23:56;;;;;;;;;4.00;3.75;;;;;;;;5095694;27;45569;-79
2022/03/07 03:26:21;;;;;;;;;5.25;5.25;;;;;;;;5097823;27;45429;-78
2022/03/07 03:28:46;;;;;;;;;5.00;5.00;;;;;;;;5094898;27;46174;-79
2022/03/07 03:31:12;;;;;;;;;6.00;6.00;;;;;;;;5095424;27;45578;-79
2022/03/07 03:33:42;;;;;;;;;5.00;5.00;;;;;;;;5095661;27;45481;-79
2022/03/07 03:36:07;;;;;;;;;5.75;5.00;;;;;;;;5095827;27;45484;-79
2022/03/07 03:38:32;;;;;;;;;6.25;6.00;;;;;;;;5095632;27;46274;-79
2022/03/07 03:40:58;;;;;;;;;5.00;5.00;;;;;;;;5095558;27;45503;-79
2022/03/07 03:43:23;;;;;;;;;6.00;6.00;;;;;;;;5096903;27;45418;-79
2022/03/07 03:45:48;;;;;;;;;5.50;4.50;;;;;;;;5077748;27;45339;-79
2022/03/07 03:48:14;;;;;;;;;5.50;5.50;;;;;;;;5098206;27;45381;-79
2022/03/07 03:50:39;;;;;;;;;7.00;7.00;;;;;;;;5113521;27;45296;-79
2022/03/07 03:53:04;;;;;;;;;4.75;4.75;;;;;;;;5098421;27;45368;-79
2022/03/07 03:55:29;;;;;;;;;6.75;6.75;;;;;;;;5080208;27;45407;-79
2022/03/07 03:57:55;;;;;;;;;9.25;6.00;;;;;;;;5098977;27;47096;-79
2022/03/07 04:00:20;;;;;;;;;3.75;3.75;;;;;;;;5101297;27;45303;-79
2022/03/07 04:02:46;;;;;;;;;3.75;3.25;;;;;;;;5106154;27;45445;-78
2022/03/07 04:05:12;;;;;;;;;4.50;4.00;;;;;;;;5099007;27;45440;-79
2022/03/07 04:07:38;;;;;;;;;5.00;5.00;;;;;;;;5092297;27;45404;-79
2022/03/07 04:10:03;;;;;;;;;6.00;6.00;;;;;;;;5089743;27;45387;-79
2022/03/07 04:12:28;;;;;;;;;7.00;7.00;;;;;;;;5079940;27;45719;-79
2022/03/07 04:14:53;;;;;;;;;6.00;6.00;;;;;;;;5080445;27;45449;-79
2022/03/07 04:17:19;;;;;;;;;6.50;5.50;;;;;;;;5099313;27;47076;-79
2022/03/07 04:19:44;;;;;;;;;5.00;4.00;;;;;;;;5083375;27;45465;-79
2022/03/07 04:22:09;;;;;;;;;5.75;4.75;;;;;;;;5098221;27;45431;-79
2022/03/07 04:24:35;;;;;;;;;3.00;3.00;;;;;;;;5098126;27;45287;-79
2022/03/07 04:27:01;;;;;;;;;7.00;5.25;;;;;;;;5098470;27;47893;-79
2022/03/07 04:29:26;;;;;;;;;5.75;5.50;;;;;;;;5099144;27;45436;-79
2022/03/07 04:31:51;;;;;;;;;7.25;6.00;;;;;;;;5097991;27;45414;-79
2022/03/07 04:34:16;;;;;;;;;7.00;7.00;;;;;;;;5098570;27;45548;-78
2022/03/07 04:36:42;;;;;;;;;6.00;5.00;;;;;;;;5098245;27;45305;-79
2022/03/07 04:39:08;;;;;;;;;7.50;6.00;;;;;;;;5100387;27;45458;-79
2022/03/07 04:41:33;;;;;;;;;6.50;6.50;;;;;;;;5099372;27;45758;-79
2022/03/07 04:43:58;;;;;;;;;5.00;5.00;;;;;;;;5098242;27;45364;-79
2022/03/07 04:46:24;;;;;;;;;5.00;4.25;;;;;;;;5098125;27;45865;-79
2022/03/07 04:48:49;;;;;;;;;5.00;5.00;;;;;;;;5097627;27;45420;-79
2022/03/07 04:51:15;;;;;;;;;6.00;6.00;;;;;;;;5098502;27;45468;-79
2022/03/07 04:53:40;;;;;;;;;5.00;5.00;;;;;;;;5099330;27;45458;-80
2022/03/07 04:56:05;;;;;;;;;8.50;4.75;;;;;;;;5094342;27;45455;-79
2022/03/07 04:58:31;;;;;;;;;4.00;4.00;;;;;;;;5097562;27;45440;-79
2022/03/07 05:00:56;;;;;;;;;6.00;4.75;;;;;;;;5097883;27;45341;-79
2022/03/07 05:03:21;;;;;;;;;5.50;5.50;;;;;;;;5097684;27;45345;-78
2022/03/07 05:05:47;;;;;;;;;5.50;5.00;;;;;;;;5098412;27;46814;-79
2022/03/07 05:08:12;;;;;;;;;4.25;4.25;;;;;;;;5098314;27;45436;-79
2022/03/07 05:10:37;;;;;;;;;5.00;5.00;;;;;;;;5097465;27;45361;-79
2022/03/07 05:13:02;;;;;;;;;6.00;6.00;;;;;;;;5097268;27;45353;-79
2022/03/07 05:15:28;;;;;;;;;3.50;3.50;;;;;;;;5097735;27;45973;-79
2022/03/07 05:17:56;;;;;;;;;5.25;5.00;;;;;;;;5097309;27;45470;-80
2022/03/07 05:20:23;;;;;;;;;5.00;5.00;;;;;;;;5096535;27;45419;-79
2022/03/07 05:22:48;;;;;;;;;6.00;4.75;;;;;;;;5098240;27;45532;-79
2022/03/07 05:25:14;;;;;;;;;5.25;5.25;;;;;;;;5097745;27;46981;-79
2022/03/07 05:27:39;;;;;;;;;5.50;5.50;;;;;;;;5096828;27;45275;-79
2022/03/07 05:30:05;;;;;;;;;5.00;4.00;;;;;;;;5097264;27;45352;-79
2022/03/07 05:32:31;;;;;;;;;5.25;5.25;;;;;;;;5098528;27;45446;-79
2022/03/07 05:34:56;;;;;;;;;6.75;5.00;;;;;;;;5097245;27;46562;-79
2022/03/07 05:37:21;;;;;;;;;4.50;4.50;;;;;;;;5096690;27;45429;-79
2022/03/07 05:39:46;;;;;;;;;5.25;4.00;;;;;;;;5101140;27;45391;-79
2022/03/07 05:42:11;;;;;;;;;6.00;5.25;;;;;;;;5097550;27;45253;-79
2022/03/07 05:44:37;;;;;;;;;7.00;7.00;;;;;;;;5093600;27;46293;-79
2022/03/07 05:47:03;;;;;;;;;5.50;4.50;;;;;;;;5095736;27;45661;-79
2022/03/07 05:49:28;;;;;;;;;4.25;4.00;;;;;;;;5096491;27;45481;-79
2022/03/07 05:51:53;;;;;;;;;6.00;5.25;;;;;;;;5097191;27;45392;-79
2022/03/07 05:54:18;;;;;;;;;4.50;4.50;;;;;;;;5096832;27;45878;-79
2022/03/07 05:56:43;;;;;;;;;4.25;4.25;;;;;;;;5097164;27;45476;-79
2022/03/07 05:59:09;;;;;;;;;5.50;5.50;;;;;;;;5092524;27;45258;-79
2022/03/07 06:01:34;;;;;;;;;6.25;5.00;;;;;;;;5096549;27;45329;-79
2022/03/07 06:03:59;;;;;;;;;3.50;3.25;;;;;;;;5096735;27;46223;-79
2022/03/07 06:06:25;;;;;;;;;7.00;5.00;;;;;;;;5097439;27;45422;-78
2022/03/07 06:08:51;;;;;;;;;4.75;4.75;;;;;;;;5096352;27;45250;-79
2022/03/07 06:11:16;;;;;;;;;6.00;5.00;;;;;;;;5097285;27;45417;-79
2022/03/07 06:13:41;;;;;;;;;4.25;4.25;;;;;;;;5091918;27;45870;-79
2022/03/07 06:16:06;;;;;;;;;4.75;4.75;;;;;;;;5095952;27;45477;-79
2022/03/07 06:18:32;;;;;;;;;4.25;4.25;;;;;;;;5096489;27;45402;-79
2022/03/07 06:20:57;;;;;;;;;4.50;4.50;;;;;;;;5096948;27;45378;-79
2022/03/07 06:23:23;;;;;;;;;5.00;5.00;;;;;;;;5097440;27;45834;-79
2022/03/07 06:25:49;;;;;;;;;7.00;6.25;;;;;;;;5102027;27;45475;-79
2022/03/07 06:28:15;;;;;;;;;4.25;4.25;;;;;;;;5105178;27;45501;-78
2022/03/07 06:30:41;;;;;;;;;4.00;3.75;;;;;;;;5097671;27;45480;-79
2022/03/07 06:33:06;;;;;;;;;5.00;5.00;;;;;;;;5095998;27;46664;-79
2022/03/07 06:35:31;;;;;;;;;6.00;6.00;;;;;;;;5094846;27;45423;-78
2022/03/07 06:37:57;;;;;;;;;7.00;5.50;;;;;;;;5093976;27;45224;-75
2022/03/07 06:40:22;;;;;;;;;6.50;6.50;;;;;;;;5094567;27;45420;-75
2022/03/07 06:42:48;;;;;;;;;7.00;7.00;;;;;;;;5094441;27;47120;-75
2022/03/07 06:45:14;;;;;;;;;5.00;5.00;;;;;;;;5094564;27;45295;-76
2022/03/07 06:47:39;;;;;;;;;4.75;4.75;;;;;;;;5095682;27;45459;-72
2022/03/07 06:50:05;;;;;;;;;5.50;5.50;;;;;;;;5094509;27;45697;-74
2022/03/07 06:52:30;;;;;;;;;5.75;5.75;;;;;;;;5094113;27;46165;-74
2022/03/07 06:54:55;;;;;;;;;5.00;5.00;;;;;;;;5093836;27;45349;-75
2022/03/07 06:57:21;;;;;;;;;4.00;4.00;;;;;;;;5096116;27;45438;-74
2022/03/07 06:59:46;;;;;;;;;5.75;5.00;;;;;;;;5093056;27;45570;-75
2022/03/07 07:02:11;;;;;;;;;5.25;5.25;;;;;;;;5094816;27;46451;-74
2022/03/07 07:04:37;;;;;;;;;6.00;4.75;;;;;;;;5094921;27;45482;-73
2022/03/07 07:07:02;;;;;;;;;7.00;6.00;;;;;;;;5084566;27;45580;-74
2022/03/07 07:09:28;;;;;;;;;5.00;4.00;;;;;;;;5094751;27;45526;-72
2022/03/07 07:11:53;;;;;;;;;6.75;4.00;;;;;;;;5094770;27;47079;-74
2022/03/07 07:14:18;;;;;;;;;6.25;6.00;;;;;;;;5073022;27;45430;-73
2022/03/07 07:16:43;;;;;;;;;4.00;4.00;;;;;;;;5094497;27;45392;-73
2022/03/07 07:19:08;;;;;;;;;4.75;4.75;;;;;;;;5098147;27;45723;-72
2022/03/07 07:21:34;;;;;;;;;5.75;4.50;;;;;;;;5093854;27;46113;-74
2022/03/07 07:23:59;;;;;;;;;6.00;5.50;;;;;;;;5094548;27;45513;-75
2022/03/07 07:26:24;;;;;;;;;6.75;4.75;;;;;;;;5094404;27;45361;-75
2022/03/07 07:28:49;;;;;;;;;6.50;5.25;;;;;;;;5094645;27;45337;-75
2022/03/07 07:31:14;;;;;;;;;5.25;5.25;;;;;;;;5094540;27;46317;-75
2022/03/07 07:33:40;;;;;;;;;4.00;4.00;;;;;;;;5107026;27;45342;-73
2022/03/07 07:36:05;;;;;;;;;8.00;7.50;;;;;;;;5091469;27;45339;-73
2022/03/07 07:38:30;;;;;;;;;5.00;5.00;;;;;;;;5096423;27;45374;-72
2022/03/07 07:40:55;;;;;;;;;6.00;6.00;;;;;;;;5095363;27;46063;-72
2022/03/07 07:43:21;;;;;;;;;5.75;5.75;;;;;;;;5094308;27;45487;-73
2022/03/07 07:45:46;;;;;;;;;8.00;6.25;;;;;;;;5095431;27;45625;-73
2022/03/07 07:48:11;;;;;;;;;6.50;6.25;;;;;;;;5094809;27;45419;-72
2022/03/07 07:50:36;;;;;;;;;5.75;5.75;;;;;;;;5099807;27;45311;-73
2022/03/07 07:53:02;;;;;;;;;7.00;7.00;;;;;;;;5096387;27;45551;-73
2022/03/07 07:55:27;;;;;;;;;8.00;8.00;;;;;;;;5094782;27;45302;-72
2022/03/07 07:57:52;;;;;;;;;5.00;5.00;;;;;;;;5094469;27;45376;-72
2022/03/07 08:00:20;;;;;;;;;5.75;5.75;;;;;;;;5094879;27;47329;-72
2022/03/07 08:02:46;;;;;;;;;6.00;6.00;;;;;;;;5095419;27;45612;-72
2022/03/07 08:05:11;;;;;;;;;6.00;6.00;;;;;;;;5095675;27;45433;-72
2022/03/07 08:07:36;;;;;;;;;6.00;6.00;;;;;;;;5095583;27;45581;-72
2022/03/07 08:10:02;;;;;;;;;4.25;4.25;;;;;;;;5095034;27;46110;-72
2022/03/07 08:12:27;;;;;;;;;5.50;5.50;;;;;;;;5096098;27;45421;-72
2022/03/07 08:14:53;;;;;;;;;7.25;5.50;;;;;;;;5095327;27;45390;-73
2022/03/07 08:17:18;;;;;;;;;5.75;5.75;;;;;;;;5101028;27;45326;-73
2022/03/07 08:19:43;;;;;;;;;7.00;7.00;;;;;;;;5098206;27;46315;-72
2022/03/07 08:22:08;;;;;;;;;5.00;5.00;;;;;;;;5093344;27;45464;-73
2022/03/07 08:24:34;;;;;;;;;6.00;4.75;;;;;;;;5082289;27;45417;-73
2022/03/07 08:26:59;;;;;;;;;6.50;5.00;;;;;;;;5094652;27;45421;-73
2022/03/07 08:29:25;;;;;;;;;5.25;5.25;;;;;;;;5095712;27;46314;-72
2022/03/07 08:31:50;;;;;;;;;5.00;5.00;;;;;;;;5094891;27;45462;-73
2022/03/07 08:34:15;;;;;;;;;5.25;5.25;;;;;;;;5097852;27;45312;-73
2022/03/07 08:36:41;;;;;;;;;3.50;3.00;;;;;;;;5098016;27;45603;-73
2022/03/07 08:39:06;;;;;;;;;6.00;5.25;;;;;;;;5097635;27;46152;-73
2022/03/07 08:41:31;;;;;;;;;5.75;5.00;;;;;;;;5091864;27;45344;-73
2022/03/07 08:43:56;;;;;;;;;4.50;4.50;;;;;;;;5103649;27;45439;-73
2022/03/07 08:46:22;;;;;;;;;5.25;4.25;;;;;;;;5103782;27;45299;-73
2022/03/07 08:48:48;;;;;;;;;6.50;4.25;;;;;;;;5097613;27;46016;-73
2022/03/07 08:51:13;;;;;;;;;6.00;5.75;;;;;;;;5097530;27;45484;-73
2022/03/07 08:53:38;;;;;;;;;7.00;5.75;;;;;;;;5094613;27;45351;-72
2022/03/07 08:56:03;;;;;;;;;7.50;7.50;;;;;;;;5097044;27;45535;-72
2022/03/07 08:58:29;;;;;;;;;7.50;5.50;;;;;;;;5097262;27;45387;-72
2022/03/07 09:00:54;;;;;;;;;7.75;6.25;;;;;;;;5097773;27;45869;-73
2022/03/07 09:03:19;;;;;;;;;7.00;5.00;;;;;;;;5097708;27;45662;-73
2022/03/07 09:05:44;;;;;;;;;6.75;6.75;;;;;;;;5098884;27;45252;-73
2022/03/07 09:08:09;;;;;;;;;6.75;6.75;;;;;;;;5097908;27;45408;-72
2022/03/07 09:10:35;;;;;;;;;6.00;6.00;;;;;;;;5097415;27;45618;-73
2022/03/07 09:13:00;;;;;;;;;5.75;5.75;;;;;;;;5097781;27;48807;-73
2022/03/07 09:15:25;;;;;;;;;6.50;6.50;;;;;;;;5097583;27;45255;-72
2022/03/07 09:17:50;;;;;;;;;6.75;4.75;;;;;;;;5098027;27;46285;-72
2022/03/07 09:20:17;;;;;;;;;5.50;5.50;;;;;;;;5098126;27;45346;-73
2022/03/07 09:22:42;;;;;;;;;6.00;5.75;;;;;;;;5089712;27;45328;-73
2022/03/07 09:25:08;;;;;;;;;5.50;4.75;;;;;;;;5083992;27;45392;-73
2022/03/07 09:27:34;;;;;;;;;8.50;6.00;;;;;;;;5096770;27;46829;-73
2022/03/07 09:29:59;;;;;;;;;6.25;6.25;;;;;;;;5096982;27;45292;-72
2022/03/07 09:32:24;;;;;;;;;7.00;6.00;;;;;;;;5098625;27;45412;-73
2022/03/07 09:34:49;;;;;;;;;8.75;8.50;;;;;;;;5097096;27;45486;-73
2022/03/07 09:37:15;;;;;;;;;5.25;5.25;;;;;;;;5098706;27;46444;-73
2022/03/07 09:39:40;;;;;;;;;5.00;5.00;;;;;;;;5109223;27;45379;-72
2022/03/07 09:42:06;;;;;;;;;6.00;6.00;;;;;;;;5096683;27;45320;-73
2022/03/07 09:44:31;;;;;;;;;6.25;6.25;;;;;;;;5101315;27;45439;-73
2022/03/07 09:46:57;;;;;;;;;7.00;7.00;;;;;;;;5098341;27;46123;-73
2022/03/07 09:49:23;;;;;;;;;6.25;6.00;;;;;;;;5096108;27;45298;-72
2022/03/07 09:51:48;;;;;;;;;7.50;7.00;;;;;;;;5092000;27;45397;-73
2022/03/07 09:54:13;;;;;;;;;7.25;7.25;;;;;;;;5096595;27;45474;-73
2022/03/07 09:56:39;;;;;;;;;6.25;6.25;;;;;;;;5097537;27;46202;-73
2022/03/07 09:59:06;;;;;;;;;6.00;6.00;;;;;;;;5096249;27;45522;-73
2022/03/07 10:01:31;;;;;;;;;5.00;5.00;;;;;;;;5097507;27;45521;-73
2022/03/07 10:04:03;;;;;;;;;5.75;5.75;;;;;;;;5096292;27;45470;-73
2022/03/07 10:06:31;;;;;;;;;5.25;5.25;;;;;;;;5096872;27;45388;-73
2022/03/07 10:08:58;;;;;;;;;5.25;5.25;;;;;;;;5079947;27;45241;-73
2022/03/07 10:11:23;;;;;;;;;7.00;7.00;;;;;;;;5097258;27;45467;-73
2022/03/07 10:13:50;;;;;;;;;8.25;6.00;;;;;;;;5091395;27;45484;-73
2022/03/07 10:16:15;;;;;;;;;4.25;4.25;;;;;;;;5097060;27;46129;-73
2022/03/07 10:18:47;;;;;;;;;5.00;5.00;;;;;;;;5108313;27;45931;-73
2022/03/07 10:21:20;;;;;;;;;6.75;6.75;;;;;;;;5081108;27;45594;-73
2022/03/07 10:23:49;;;;;;;;;6.25;6.25;;;;;;;;5093375;27;45256;-73
2022/03/07 10:26:15;;;;;;;;;6.00;6.00;;;;;;;;5090920;27;45371;-73
2022/03/07 10:28:41;;;;;;;;;6.50;6.50;;;;;;;;5095906;27;45458;-73
2022/03/07 10:31:16;;;;;;;;;6.50;6.50;;;;;;;;5096382;27;45452;-73
2022/03/07 10:33:41;;;;;;;;;5.00;5.00;;;;;;;;5097331;27;45400;-72
2022/03/07 10:36:07;;;;;;;;;5.75;5.75;;;;;;;;5095875;27;46971;-73
2022/03/07 10:38:32;;;;;;;;;6.25;5.75;;;;;;;;5096314;27;45441;-73
2022/03/07 10:40:57;;;;;;;;;6.50;5.75;;;;;;;;5095934;27;45464;-73
2022/03/07 10:43:23;;;;;;;;;7.00;7.00;;;;;;;;5095751;27;45701;-73
2022/03/07 10:45:49;;;;;;;;;8.50;7.25;;;;;;;;5077577;27;47187;-73
2022/03/07 10:48:15;;;;;;;;;6.50;5.75;;;;;;;;5095953;27;45975;-73
2022/03/07 10:50:46;;;;;;;;;8.25;7.50;;;;;;;;5096829;27;45487;-73
2022/03/07 10:53:11;;;;;;;;;7.00;6.50;;;;;;;;5091090;27;45561;-73
2022/03/07 10:55:37;;;;;;;;;5.75;5.25;;;;;;;;5095405;27;46008;-73
2022/03/07 10:58:10;;;;;;;;;10.50;7.50;;;;;;;;5095188;27;45353;-73
2022/03/07 11:00:51;;;;;;;;;8.50;7.50;;;;;;;;5096090;27;45509;-73
2022/03/07 11:03:20;;;;;;;;;6.00;6.00;;;;;;;;5080590;27;45420;-73
2022/03/07 11:05:46;;;;;;;;;5.75;5.75;;;;;;;;5078754;27;46735;-73
2022/03/07 11:08:14;;;;;;;;;6.00;6.00;;;;;;;;5096431;27;45361;-73
2022/03/07 11:10:44;;;;;;;;;5.75;5.75;;;;;;;;5095328;27;45413;-73
2022/03/07 11:13:11;;;;;;;;;5.50;5.25;;;;;;;;5095638;27;45361;-73
2022/03/07 11:15:36;;;;;;;;;7.75;6.00;;;;;;;;5095509;27;47303;-73
2022/03/07 11:18:01;;;;;;;;;6.25;6.00;;;;;;;;5095454;27;45438;-73
2022/03/07 11:20:27;;;;;;;;;7.50;7.25;;;;;;;;5096543;27;45360;-73
2022/03/07 11:22:53;;;;;;;;;8.75;8.75;;;;;;;;5096459;27;45491;-73
2022/03/07 11:25:18;;;;;;;;;7.00;7.00;;;;;;;;5102440;27;46948;-73
2022/03/07 11:27:44;;;;;;;;;8.50;7.00;;;;;;;;5095438;27;45305;-73
2022/03/07 11:30:12;;;;;;;;;9.25;6.00;;;;;;;;5079275;27;45306;-73
2022/03/07 11:32:38;;;;;;;;;6.75;6.75;;;;;;;;5096173;27;45514;-73
2022/03/07 11:35:03;;;;;;;;;8.50;7.50;;;;;;;;5097279;27;45692;-73
2022/03/07 11:37:30;;;;;;;;;8.25;8.00;;;;;;;;5095324;27;45356;-73
2022/03/07 11:39:58;;;;;;;;;9.00;7.75;;;;;;;;5094742;27;45630;-73
2022/03/07 11:42:24;;;;;;;;;10.50;8.00;;;;;;;;5094044;27;49122;-73
2022/03/07 11:44:50;;;;;;;;;7.25;7.25;;;;;;;;5092775;27;46277;-73
2022/03/07 11:47:17;;;;;;;;;6.50;6.50;;;;;;;;5091618;27;45266;-73
2022/03/07 11:49:43;;;;;;;;;8.00;8.00;;;;;;;;5098324;27;45290;-73
2022/03/07 11:52:13;;;;;;;;;11.00;9.75;;;;;;;;5091550;27;45464;-73
2022/03/07 11:54:49;;;;;;;;;6.75;6.75;;;;;;;;5082335;27;48856;-73
2022/03/07 11:57:15;;;;;;;;;8.00;8.00;;;;;;;;5079237;27;45555;-73
2022/03/07 11:59:40;;;;;;;;;7.00;7.00;;;;;;;;5096206;27;45337;-73
2022/03/07 12:02:05;;;;;;;;;9.50;8.00;;;;;;;;5083722;27;45295;-73
2022/03/07 12:04:42;;;;;;;;;10.50;7.50;;;;;;;;5082883;27;46494;-72
2022/03/07 12:07:08;;;;;;;;;7.25;7.00;;;;;;;;5090858;27;45365;-72
2022/03/07 12:09:34;;;;;;;;;6.50;6.25;;;;;;;;5098910;27;45491;-72
2022/03/07 12:12:02;;;;;;;;;7.50;7.50;;;;;;;;5098431;27;45434;-72
2022/03/07 12:14:28;;;;;;;;;8.25;8.00;;;;;;;;5099350;27;47061;-72
2022/03/07 12:16:54;;;;;;;;;8.75;8.75;;;;;;;;5097831;27;45284;-73
2022/03/07 12:19:19;;;;;;;;;8.00;8.00;;;;;;;;5097649;27;45846;-72
2022/03/07 12:21:45;;;;;;;;;9.50;8.00;;;;;;;;5098611;27;45454;-72
2022/03/07 12:24:12;;;;;;;;;10.50;8.25;;;;;;;;5106753;27;46259;-72
2022/03/07 12:26:46;;;;;;;;;7.25;7.25;;;;;;;;5099238;27;45362;-73
2022/03/07 12:29:11;;;;;;;;;6.00;6.00;;;;;;;;5099121;27;45406;-72
2022/03/07 12:31:37;;;;;;;;;8.75;8.00;;;;;;;;5098231;27;45322;-72
2022/03/07 12:34:04;;;;;;;;;9.00;9.00;;;;;;;;5096721;27;45510;-72
2022/03/07 12:36:29;;;;;;;;;7.00;7.00;;;;;;;;5097984;27;45448;-73
2022/03/07 12:38:56;;;;;;;;;8.00;7.75;;;;;;;;5113028;27;45482;-72
2022/03/07 12:41:31;;;;;;;;;9.00;9.00;;;;;;;;5099050;27;45546;-72
2022/03/07 12:43:57;;;;;;;;;7.25;7.00;;;;;;;;5093049;27;46186;-73
2022/03/07 12:46:22;;;;;;;;;7.25;7.25;;;;;;;;5097675;27;45319;-72
2022/03/07 12:48:48;;;;;;;;;10.25;9.25;;;;;;;;5097846;27;45420;-73
2022/03/07 12:51:15;;;;;;;;;9.00;7.00;;;;;;;;5097575;27;45424;-72
2022/03/07 12:53:52;;;;;;;;;9.75;8.50;;;;;;;;5098599;27;45429;-72
2022/03/07 12:56:18;;;;;;;;;7.50;6.50;;;;;;;;5095597;27;45514;-72
2022/03/07 12:58:56;;;;;;;;;7.25;7.25;;;;;;;;5098040;27;45378;-72
2022/03/07 13:01:22;;;;;;;;;8.75;7.75;;;;;;;;5097663;27;45522;-72
2022/03/07 13:03:49;;;;;;;;;9.50;7.50;;;;;;;;5097312;27;45941;-72
2022/03/07 13:06:15;;;;;;;;;6.25;5.75;;;;;;;;5082142;27;45306;-72
2022/03/07 13:08:47;;;;;;;;;8.00;8.00;;;;;;;;5094367;27;45410;-72
2022/03/07 13:11:12;;;;;;;;;9.50;8.50;;;;;;;;5097345;27;45577;-72
2022/03/07 13:13:48;;;;;;;;;8.00;8.00;;;;;;;;5092548;27;45989;-72
2022/03/07 13:16:22;;;;;;;;;8.75;7.50;;;;;;;;5097017;27;45388;-72
2022/03/07 13:18:55;;;;;;;;;7.50;6.50;;;;;;;;5095254;27;45461;-72
2022/03/07 13:21:21;;;;;;;;;8.75;8.50;;;;;;;;5097172;27;45495;-72
2022/03/07 13:23:47;;;;;;;;;9.00;7.75;;;;;;;;5097893;27;45477;-72
2022/03/07 13:26:21;;;;;;;;;8.00;8.00;;;;;;;;5097421;27;45433;-71
2022/03/07 13:28:47;;;;;;;;;8.50;8.00;;;;;;;;5089483;27;45461;-72
2022/03/07 13:31:14;;;;;;;;;7.75;6.50;;;;;;;;5101408;27;45571;-72
2022/03/07 13:33:39;;;;;;;;;7.50;7.50;;;;;;;;5084929;27;47238;-72
2022/03/07 13:36:09;;;;;;;;;6.50;6.50;;;;;;;;5097267;27;45462;-72
2022/03/07 13:38:36;;;;;;;;;7.75;7.75;;;;;;;;5098096;27;45392;-72
2022/03/07 13:41:05;;;;;;;;;7.75;7.75;;;;;;;;5090803;27;45425;-72
2022/03/07 13:43:30;;;;;;;;;10.75;9.25;;;;;;;;5096523;27;45407;-72
2022/03/07 13:45:55;;;;;;;;;12.50;11.25;;;;;;;;5078071;27;45485;-72
2022/03/07 13:48:22;;;;;;;;;7.75;7.50;;;;;;;;5097485;27;45555;-72
2022/03/07 13:50:48;;;;;;;;;7.25;7.00;;;;;;;;5096755;27;45400;-72
2022/03/07 13:53:14;;;;;;;;;9.25;9.25;;;;;;;;5096703;27;46182;-72
2022/03/07 13:55:45;;;;;;;;;9.25;8.50;;;;;;;;5096329;27;45644;-72
2022/03/07 13:58:15;;;;;;;;;10.00;10.00;;;;;;;;5097823;27;45454;-72
2022/03/07 14:00:40;;;;;;;;;8.00;7.00;;;;;;;;5096387;27;45468;-72
2022/03/07 14:03:06;;;;;;;;;9.50;9.50;;;;;;;;5096066;27;45431;-72
2022/03/07 14:05:39;;;;;;;;;8.25;7.25;;;;;;;;5097782;27;45283;-72
2022/03/07 14:08:04;;;;;;;;;7.50;7.50;;;;;;;;5096838;27;45345;-72
2022/03/07 14:10:30;;;;;;;;;7.50;7.50;;;;;;;;5095994;27;45464;-72
2022/03/07 14:12:56;;;;;;;;;9.50;7.50;;;;;;;;5095471;27;47424;-72
2022/03/07 14:15:29;;;;;;;;;7.75;7.75;;;;;;;;5097285;27;45500;-72
2022/03/07 14:17:55;;;;;;;;;9.00;9.00;;;;;;;;5096288;27;45315;-72
2022/03/07 14:20:20;;;;;;;;;9.00;8.00;;;;;;;;5099248;27;45389;-72
2022/03/07 14:22:46;;;;;;;;;8.25;8.25;;;;;;;;5096668;27;45566;-72
2022/03/07 14:25:11;;;;;;;;;10.00;8.50;;;;;;;;5075147;27;45584;-72
2022/03/07 14:27:37;;;;;;;;;12.00;8.75;;;;;;;;5083520;27;45503;-72
2022/03/07 14:30:04;;;;;;;;;9.75;9.00;;;;;;;;5095582;27;45292;-72
2022/03/07 14:32:30;;;;;;;;;7.50;7.50;;;;;;;;5096890;27;46152;-72
2022/03/07 14:34:55;;;;;;;;;10.75;9.50;;;;;;;;5095647;27;45619;-72